sensor_id;sensor_type;location;lat;lon;timestamp;temperature;humidity
27162;DHT22;54464;50.558;9.704;2023-04-08T00:01:41;4.50;99.90
27162;DHT22;54464;50.558;9.704;2023-04-08T00:04:07;4.50;99.90
27162;DHT22;54464;50.558;9.704;2023-04-08T00:06:34;4.50;99.90
27162;DHT22;54464;50.558;9.704;2023-04-08T00:08:59;4.40;99.90
27162;DHT22;54464;50.558;9.704;2023-04-08T00:11:25;4.40;99.90
27162;DHT22;54464;50.558;9.704;2023-04-08T00:13:50;4.40;99.90
27162;DHT22;54464;50.558;9.704;2023-04-08T00:16:16;4.30;99.90
27162;DHT22;54464;50.558;9.704;2023-04-08T00:18:42;4.30;99.90
27162;DHT22;54464;50.558;9.704;2023-04-08T00:21:08;4.30;99.90
27162;DHT22;54464;50.558;9.704;2023-04-08T00:23:33;4.20;99.90
27162;DHT22;54464;50.558;9.704;2023-04-08T00:25:59;4.10;99.90
27162;DHT22;54464;50.558;9.704;2023-04-08T00:28:24;4.00;99.90
27162;DHT22;54464;50.558;9.704;2023-04-08T00:30:52;4.00;99.90
27162;DHT22;54464;50.558;9.704;2023-04-08T00:33:17;4.00;99.90
27162;DHT22;54464;50.558;9.704;2023-04-08T00:35:43;3.90;99.90
27162;DHT22;54464;50.558;9.704;2023-04-08T00:38:08;3.90;99.90
27162;DHT22;54464;50.558;9.704;2023-04-08T00:40:34;4.00;99.90
27162;DHT22;54464;50.558;9.704;2023-04-08T00:43:00;4.00;99.90
27162;DHT22;54464;50.558;9.704;2023-04-08T00:45:25;4.00;99.90
27162;DHT22;54464;50.558;9.704;2023-04-08T00:47:51;4.00;99.90
27162;DHT22;54464;50.558;9.704;2023-04-08T00:50:17;4.00;99.90
27162;DHT22;54464;50.558;9.704;2023-04-08T00:52:43;4.00;99.90
27162;DHT22;54464;50.558;9.704;2023-04-08T00:55:08;4.00;99.90
27162;DHT22;54464;50.558;9.704;2023-04-08T00:57:34;3.90;99.90
27162;DHT22;54464;50.558;9.704;2023-04-08T01:00:01;3.90;99.90
27162;DHT22;54464;50.558;9.704;2023-04-08T01:05:15;3.80;99.90
27162;DHT22;54464;50.558;9.704;2023-04-08T01:07:49;3.80;99.90
27162;DHT22;54464;50.558;9.704;2023-04-08T01:10:35;3.80;99.90
27162;DHT22;54464;50.558;9.704;2023-04-08T01:13:08;3.80;99.90
27162;DHT22;54464;50.558;9.704;2023-04-08T01:15:36;3.80;99.90
27162;DHT22;54464;50.558;9.704;2023-04-08T01:18:06;3.80;99.90
27162;DHT22;54464;50.558;9.704;2023-04-08T01:20:33;3.80;99.90
27162;DHT22;54464;50.558;9.704;2023-04-08T01:25:37;3.80;99.90
27162;DHT22;54464;50.558;9.704;2023-04-08T01:28:09;3.80;99.90
27162;DHT22;54464;50.558;9.704;2023-04-08T01:30:38;3.90;99.90
27162;DHT22;54464;50.558;9.704;2023-04-08T01:33:04;3.90;99.90
27162;DHT22;54464;50.558;9.704;2023-04-08T01:35:30;3.90;99.90
27162;DHT22;54464;50.558;9.704;2023-04-08T01:37:56;4.00;99.90
27162;DHT22;54464;50.558;9.704;2023-04-08T01:40:23;3.90;99.90
27162;DHT22;54464;50.558;9.704;2023-04-08T01:42:50;3.90;99.90
27162;DHT22;54464;50.558;9.704;2023-04-08T01:45:17;3.90;99.90
27162;DHT22;54464;50.558;9.704;2023-04-08T01:47:44;3.80;99.90
27162;DHT22;54464;50.558;9.704;2023-04-08T01:50:13;3.70;99.90
27162;DHT22;54464;50.558;9.704;2023-04-08T01:52:40;3.70;99.90
27162;DHT22;54464;50.558;9.704;2023-04-08T01:55:07;3.60;99.90
27162;DHT22;54464;50.558;9.704;2023-04-08T01:57:36;3.60;99.90
27162;DHT22;54464;50.558;9.704;2023-04-08T02:00:06;3.40;99.90
27162;DHT22;54464;50.558;9.704;2023-04-08T02:02:33;3.30;99.90
27162;DHT22;54464;50.558;9.704;2023-04-08T02:05:00;3.20;99.90
27162;DHT22;54464;50.558;9.704;2023-04-08T02:07:26;3.20;99.90
27162;DHT22;54464;50.558;9.704;2023-04-08T02:09:51;3.20;99.90
27162;DHT22;54464;50.558;9.704;2023-04-08T02:12:17;3.10;99.90
27162;DHT22;54464;50.558;9.704;2023-04-08T02:14:43;3.10;99.90
27162;DHT22;54464;50.558;9.704;2023-04-08T02:17:11;3.10;99.90
27162;DHT22;54464;50.558;9.704;2023-04-08T02:19:51;3.00;99.90
27162;DHT22;54464;50.558;9.704;2023-04-08T02:22:24;3.10;99.90
27162;DHT22;54464;50.558;9.704;2023-04-08T02:24:52;3.10;99.90
27162;DHT22;54464;50.558;9.704;2023-04-08T02:27:18;3.10;99.90
27162;DHT22;54464;50.558;9.704;2023-04-08T02:29:45;3.10;99.90
27162;DHT22;54464;50.558;9.704;2023-04-08T02:32:11;3.10;99.90
27162;DHT22;54464;50.558;9.704;2023-04-08T02:34:39;3.10;99.90
27162;DHT22;54464;50.558;9.704;2023-04-08T02:37:07;3.00;99.90
27162;DHT22;54464;50.558;9.704;2023-04-08T02:39:33;3.10;99.90
27162;DHT22;54464;50.558;9.704;2023-04-08T02:41:59;3.10;99.90
27162;DHT22;54464;50.558;9.704;2023-04-08T02:44:24;3.00;99.90
27162;DHT22;54464;50.558;9.704;2023-04-08T02:46:50;2.90;99.90
27162;DHT22;54464;50.558;9.704;2023-04-08T02:49:16;2.90;99.90
27162;DHT22;54464;50.558;9.704;2023-04-08T02:51:41;2.90;99.90
27162;DHT22;54464;50.558;9.704;2023-04-08T02:54:07;2.90;99.90
27162;DHT22;54464;50.558;9.704;2023-04-08T02:56:32;3.00;99.90
27162;DHT22;54464;50.558;9.704;2023-04-08T02:58:58;3.00;99.90
27162;DHT22;54464;50.558;9.704;2023-04-08T03:01:24;3.10;99.90
27162;DHT22;54464;50.558;9.704;2023-04-08T03:03:50;3.10;99.90
27162;DHT22;54464;50.558;9.704;2023-04-08T03:06:15;3.00;99.90
27162;DHT22;54464;50.558;9.704;2023-04-08T03:08:41;3.00;99.90
27162;DHT22;54464;50.558;9.704;2023-04-08T03:11:06;3.00;99.90
27162;DHT22;54464;50.558;9.704;2023-04-08T03:13:32;3.10;99.90
27162;DHT22;54464;50.558;9.704;2023-04-08T03:15:58;3.10;99.90
27162;DHT22;54464;50.558;9.704;2023-04-08T03:18:24;3.10;99.90
27162;DHT22;54464;50.558;9.704;2023-04-08T03:20:50;3.20;99.90
27162;DHT22;54464;50.558;9.704;2023-04-08T03:23:16;3.20;99.90
27162;DHT22;54464;50.558;9.704;2023-04-08T03:25:41;3.30;99.90
27162;DHT22;54464;50.558;9.704;2023-04-08T03:28:07;3.10;99.90
27162;DHT22;54464;50.558;9.704;2023-04-08T03:30:33;3.00;99.90
27162;DHT22;54464;50.558;9.704;2023-04-08T03:32:58;3.10;99.90
27162;DHT22;54464;50.558;9.704;2023-04-08T03:35:24;3.10;99.90
27162;DHT22;54464;50.558;9.704;2023-04-08T03:37:50;3.10;99.90
27162;DHT22;54464;50.558;9.704;2023-04-08T03:40:15;3.10;99.90
27162;DHT22;54464;50.558;9.704;2023-04-08T03:42:41;3.20;99.90
27162;DHT22;54464;50.558;9.704;2023-04-08T03:45:07;3.20;99.90
27162;DHT22;54464;50.558;9.704;2023-04-08T03:47:33;3.20;99.90
27162;DHT22;54464;50.558;9.704;2023-04-08T03:49:58;3.20;99.90
27162;DHT22;54464;50.558;9.704;2023-04-08T03:52:24;3.20;99.90
27162;DHT22;54464;50.558;9.704;2023-04-08T03:54:49;3.20;99.90
27162;DHT22;54464;50.558;9.704;2023-04-08T03:57:15;3.20;99.90
27162;DHT22;54464;50.558;9.704;2023-04-08T03:59:41;3.20;99.90
27162;DHT22;54464;50.558;9.704;2023-04-08T04:02:06;3.20;99.90
27162;DHT22;54464;50.558;9.704;2023-04-08T04:04:32;3.20;99.90
27162;DHT22;54464;50.558;9.704;2023-04-08T04:06:58;3.20;99.90
27162;DHT22;54464;50.558;9.704;2023-04-08T04:09:24;3.10;99.90
27162;DHT22;54464;50.558;9.704;2023-04-08T04:11:49;3.20;99.90
27162;DHT22;54464;50.558;9.704;2023-04-08T04:14:15;3.20;99.90
27162;DHT22;54464;50.558;9.704;2023-04-08T04:16:41;3.30;99.90
27162;DHT22;54464;50.558;9.704;2023-04-08T04:19:06;3.30;99.90
27162;DHT22;54464;50.558;9.704;2023-04-08T04:21:32;3.30;99.90
27162;DHT22;54464;50.558;9.704;2023-04-08T04:23:57;3.30;99.90
27162;DHT22;54464;50.558;9.704;2023-04-08T04:26:23;3.40;99.90
27162;DHT22;54464;50.558;9.704;2023-04-08T04:28:48;3.40;99.90
27162;DHT22;54464;50.558;9.704;2023-04-08T04:31:22;3.30;99.90
27162;DHT22;54464;50.558;9.704;2023-04-08T04:33:50;3.30;99.90
27162;DHT22;54464;50.558;9.704;2023-04-08T04:36:17;3.30;99.90
27162;DHT22;54464;50.558;9.704;2023-04-08T04:38:43;3.40;99.90
27162;DHT22;54464;50.558;9.704;2023-04-08T04:41:09;3.40;99.90
27162;DHT22;54464;50.558;9.704;2023-04-08T04:43:34;3.40;99.90
27162;DHT22;54464;50.558;9.704;2023-04-08T04:46:00;3.30;99.90
27162;DHT22;54464;50.558;9.704;2023-04-08T04:48:28;3.30;99.90
27162;DHT22;54464;50.558;9.704;2023-04-08T04:50:54;3.30;99.90
27162;DHT22;54464;50.558;9.704;2023-04-08T04:53:20;3.30;99.90
27162;DHT22;54464;50.558;9.704;2023-04-08T04:55:46;3.30;99.90
27162;DHT22;54464;50.558;9.704;2023-04-08T04:58:12;3.40;99.90
27162;DHT22;54464;50.558;9.704;2023-04-08T05:00:37;3.40;99.90
27162;DHT22;54464;50.558;9.704;2023-04-08T05:03:03;3.40;99.90
27162;DHT22;54464;50.558;9.704;2023-04-08T05:05:28;3.50;99.90
27162;DHT22;54464;50.558;9.704;2023-04-08T05:07:54;3.50;99.90
27162;DHT22;54464;50.558;9.704;2023-04-08T05:10:20;3.50;99.90
27162;DHT22;54464;50.558;9.704;2023-04-08T05:12:45;3.50;99.90
27162;DHT22;54464;50.558;9.704;2023-04-08T05:15:11;3.60;99.90
27162;DHT22;54464;50.558;9.704;2023-04-08T05:17:36;3.60;99.90
27162;DHT22;54464;50.558;9.704;2023-04-08T05:20:03;3.60;99.90
27162;DHT22;54464;50.558;9.704;2023-04-08T05:22:29;3.60;99.90
27162;DHT22;54464;50.558;9.704;2023-04-08T05:24:55;3.60;99.90
27162;DHT22;54464;50.558;9.704;2023-04-08T05:27:20;3.70;99.90
27162;DHT22;54464;50.558;9.704;2023-04-08T05:29:46;3.60;99.90
27162;DHT22;54464;50.558;9.704;2023-04-08T05:32:12;3.70;99.90
27162;DHT22;54464;50.558;9.704;2023-04-08T05:34:37;3.70;99.90
27162;DHT22;54464;50.558;9.704;2023-04-08T05:37:03;3.70;99.90
27162;DHT22;54464;50.558;9.704;2023-04-08T05:39:28;3.60;99.90
27162;DHT22;54464;50.558;9.704;2023-04-08T05:41:54;3.70;99.90
27162;DHT22;54464;50.558;9.704;2023-04-08T05:44:20;3.70;99.90
27162;DHT22;54464;50.558;9.704;2023-04-08T05:46:45;3.70;99.90
27162;DHT22;54464;50.558;9.704;2023-04-08T05:49:11;3.80;99.90
27162;DHT22;54464;50.558;9.704;2023-04-08T05:51:38;3.80;99.90
27162;DHT22;54464;50.558;9.704;2023-04-08T05:54:03;3.80;99.90
27162;DHT22;54464;50.558;9.704;2023-04-08T05:56:29;3.80;99.90
27162;DHT22;54464;50.558;9.704;2023-04-08T05:58:56;3.90;99.90
27162;DHT22;54464;50.558;9.704;2023-04-08T06:01:22;3.90;99.90
27162;DHT22;54464;50.558;9.704;2023-04-08T06:03:48;4.00;99.90
27162;DHT22;54464;50.558;9.704;2023-04-08T06:06:13;4.00;99.90
27162;DHT22;54464;50.558;9.704;2023-04-08T06:08:39;4.10;99.90
27162;DHT22;54464;50.558;9.704;2023-04-08T06:11:05;4.10;99.90
27162;DHT22;54464;50.558;9.704;2023-04-08T06:13:31;4.10;99.90
27162;DHT22;54464;50.558;9.704;2023-04-08T06:15:57;4.20;99.90
27162;DHT22;54464;50.558;9.704;2023-04-08T06:18:23;4.20;99.90
27162;DHT22;54464;50.558;9.704;2023-04-08T06:20:49;4.20;99.90
27162;DHT22;54464;50.558;9.704;2023-04-08T06:23:15;4.30;99.90
27162;DHT22;54464;50.558;9.704;2023-04-08T06:25:40;4.30;99.90
27162;DHT22;54464;50.558;9.704;2023-04-08T06:28:06;4.40;99.90
27162;DHT22;54464;50.558;9.704;2023-04-08T06:30:32;4.40;99.90
27162;DHT22;54464;50.558;9.704;2023-04-08T06:32:57;4.40;99.90
27162;DHT22;54464;50.558;9.704;2023-04-08T06:35:23;4.40;99.90
27162;DHT22;54464;50.558;9.704;2023-04-08T06:37:49;4.40;99.90
27162;DHT22;54464;50.558;9.704;2023-04-08T06:40:14;4.40;99.90
27162;DHT22;54464;50.558;9.704;2023-04-08T06:42:40;4.50;99.90
27162;DHT22;54464;50.558;9.704;2023-04-08T06:45:07;4.50;99.90
27162;DHT22;54464;50.558;9.704;2023-04-08T06:47:33;4.60;99.90
27162;DHT22;54464;50.558;9.704;2023-04-08T06:49:59;4.70;99.90
27162;DHT22;54464;50.558;9.704;2023-04-08T06:52:24;4.70;99.90
27162;DHT22;54464;50.558;9.704;2023-04-08T06:54:50;4.80;99.90
27162;DHT22;54464;50.558;9.704;2023-04-08T06:57:16;4.90;99.90
27162;DHT22;54464;50.558;9.704;2023-04-08T06:59:41;5.00;99.90
27162;DHT22;54464;50.558;9.704;2023-04-08T07:02:07;5.10;99.90
27162;DHT22;54464;50.558;9.704;2023-04-08T07:04:32;5.10;99.90
27162;DHT22;54464;50.558;9.704;2023-04-08T07:06:58;5.20;99.90
27162;DHT22;54464;50.558;9.704;2023-04-08T07:09:23;5.20;99.90
27162;DHT22;54464;50.558;9.704;2023-04-08T07:11:49;5.20;99.90
27162;DHT22;54464;50.558;9.704;2023-04-08T07:14:14;5.30;99.90
27162;DHT22;54464;50.558;9.704;2023-04-08T07:16:40;5.30;99.90
27162;DHT22;54464;50.558;9.704;2023-04-08T07:19:06;5.40;99.90
27162;DHT22;54464;50.558;9.704;2023-04-08T07:21:31;5.40;99.90
27162;DHT22;54464;50.558;9.704;2023-04-08T07:23:57;5.50;99.90
27162;DHT22;54464;50.558;9.704;2023-04-08T07:26:22;5.60;99.90
27162;DHT22;54464;50.558;9.704;2023-04-08T07:28:48;5.60;99.90
27162;DHT22;54464;50.558;9.704;2023-04-08T07:31:17;5.80;99.90
27162;DHT22;54464;50.558;9.704;2023-04-08T07:33:44;5.90;99.90
27162;DHT22;54464;50.558;9.704;2023-04-08T07:36:11;6.00;99.90
27162;DHT22;54464;50.558;9.704;2023-04-08T07:38:37;6.10;99.90
27162;DHT22;54464;50.558;9.704;2023-04-08T07:41:03;6.20;99.90
27162;DHT22;54464;50.558;9.704;2023-04-08T07:43:32;6.20;99.90
27162;DHT22;54464;50.558;9.704;2023-04-08T07:46:05;6.20;99.90
27162;DHT22;54464;50.558;9.704;2023-04-08T07:48:31;6.30;99.90
27162;DHT22;54464;50.558;9.704;2023-04-08T07:50:57;6.30;99.90
27162;DHT22;54464;50.558;9.704;2023-04-08T07:53:27;6.30;99.90
27162;DHT22;54464;50.558;9.704;2023-04-08T07:55:52;6.20;99.90
27162;DHT22;54464;50.558;9.704;2023-04-08T07:58:18;6.20;99.90
27162;DHT22;54464;50.558;9.704;2023-04-08T08:00:43;6.20;99.90
27162;DHT22;54464;50.558;9.704;2023-04-08T08:03:09;6.20;99.90
27162;DHT22;54464;50.558;9.704;2023-04-08T08:05:35;6.20;99.90
27162;DHT22;54464;50.558;9.704;2023-04-08T08:08:01;6.30;99.90
27162;DHT22;54464;50.558;9.704;2023-04-08T08:10:27;6.30;99.90
27162;DHT22;54464;50.558;9.704;2023-04-08T08:12:53;6.40;99.90
27162;DHT22;54464;50.558;9.704;2023-04-08T08:15:18;6.40;99.90
27162;DHT22;54464;50.558;9.704;2023-04-08T08:17:44;6.50;99.90
27162;DHT22;54464;50.558;9.704;2023-04-08T08:20:10;6.60;99.90
27162;DHT22;54464;50.558;9.704;2023-04-08T08:22:35;6.70;99.90
27162;DHT22;54464;50.558;9.704;2023-04-08T08:25:04;6.70;99.90
27162;DHT22;54464;50.558;9.704;2023-04-08T08:27:30;6.70;99.90
27162;DHT22;54464;50.558;9.704;2023-04-08T08:29:55;6.70;99.90
27162;DHT22;54464;50.558;9.704;2023-04-08T08:32:21;6.70;99.90
27162;DHT22;54464;50.558;9.704;2023-04-08T08:34:47;6.70;99.90
27162;DHT22;54464;50.558;9.704;2023-04-08T08:37:12;6.70;99.90
27162;DHT22;54464;50.558;9.704;2023-04-08T08:39:38;6.70;99.90
27162;DHT22;54464;50.558;9.704;2023-04-08T08:42:03;6.70;99.90
27162;DHT22;54464;50.558;9.704;2023-04-08T08:44:29;6.60;99.90
27162;DHT22;54464;50.558;9.704;2023-04-08T08:46:55;6.60;99.90
27162;DHT22;54464;50.558;9.704;2023-04-08T08:49:20;6.60;99.90
27162;DHT22;54464;50.558;9.704;2023-04-08T08:51:46;6.60;99.90
27162;DHT22;54464;50.558;9.704;2023-04-08T08:54:14;6.50;99.90
27162;DHT22;54464;50.558;9.704;2023-04-08T08:56:39;6.50;99.90
27162;DHT22;54464;50.558;9.704;2023-04-08T08:59:10;6.50;99.90
27162;DHT22;54464;50.558;9.704;2023-04-08T09:01:37;6.40;99.90
27162;DHT22;54464;50.558;9.704;2023-04-08T09:04:16;6.40;99.90
27162;DHT22;54464;50.558;9.704;2023-04-08T09:06:43;6.40;99.90
27162;DHT22;54464;50.558;9.704;2023-04-08T09:09:09;6.40;99.90
27162;DHT22;54464;50.558;9.704;2023-04-08T09:11:36;6.40;99.90
27162;DHT22;54464;50.558;9.704;2023-04-08T09:14:02;6.40;99.90
27162;DHT22;54464;50.558;9.704;2023-04-08T09:16:29;6.50;99.90
27162;DHT22;54464;50.558;9.704;2023-04-08T09:19:09;6.50;99.90
27162;DHT22;54464;50.558;9.704;2023-04-08T09:21:35;6.50;99.90
27162;DHT22;54464;50.558;9.704;2023-04-08T09:24:01;6.50;99.90
27162;DHT22;54464;50.558;9.704;2023-04-08T09:26:26;6.50;99.90
27162;DHT22;54464;50.558;9.704;2023-04-08T09:29:04;6.50;99.90
27162;DHT22;54464;50.558;9.704;2023-04-08T09:31:34;6.60;99.90
27162;DHT22;54464;50.558;9.704;2023-04-08T09:34:11;6.60;99.90
27162;DHT22;54464;50.558;9.704;2023-04-08T09:36:37;6.80;99.90
27162;DHT22;54464;50.558;9.704;2023-04-08T09:39:02;6.90;99.90
27162;DHT22;54464;50.558;9.704;2023-04-08T09:41:28;7.10;99.90
27162;DHT22;54464;50.558;9.704;2023-04-08T09:43:59;7.30;99.90
27162;DHT22;54464;50.558;9.704;2023-04-08T09:49:32;7.70;99.90
27162;DHT22;54464;50.558;9.704;2023-04-08T09:55:02;8.50;99.90
27162;DHT22;54464;50.558;9.704;2023-04-08T09:57:48;9.60;99.90
27162;DHT22;54464;50.558;9.704;2023-04-08T10:00:16;10.60;99.90
27162;DHT22;54464;50.558;9.704;2023-04-08T10:05:26;11.70;99.90
27162;DHT22;54464;50.558;9.704;2023-04-08T10:07:52;12.00;99.90
27162;DHT22;54464;50.558;9.704;2023-04-08T10:10:20;12.20;99.90
27162;DHT22;54464;50.558;9.704;2023-04-08T10:12:47;12.50;99.90
27162;DHT22;54464;50.558;9.704;2023-04-08T10:15:32;12.60;99.90
27162;DHT22;54464;50.558;9.704;2023-04-08T10:23:02;13.70;99.50
27162;DHT22;54464;50.558;9.704;2023-04-08T10:25:39;13.70;99.00
27162;DHT22;54464;50.558;9.704;2023-04-08T10:30:44;13.20;99.70
27162;DHT22;54464;50.558;9.704;2023-04-08T10:33:20;13.00;99.00
27162;DHT22;54464;50.558;9.704;2023-04-08T10:35:49;12.80;99.70
27162;DHT22;54464;50.558;9.704;2023-04-08T10:38:16;12.50;99.90
27162;DHT22;54464;50.558;9.704;2023-04-08T10:40:43;12.40;99.90
27162;DHT22;54464;50.558;9.704;2023-04-08T10:43:13;12.30;99.90
27162;DHT22;54464;50.558;9.704;2023-04-08T10:45:40;12.30;99.90
27162;DHT22;54464;50.558;9.704;2023-04-08T10:48:22;12.30;99.90
27162;DHT22;54464;50.558;9.704;2023-04-08T10:50:57;12.20;99.90
27162;DHT22;54464;50.558;9.704;2023-04-08T10:53:35;12.00;99.90
27162;DHT22;54464;50.558;9.704;2023-04-08T10:56:08;11.80;99.90
27162;DHT22;54464;50.558;9.704;2023-04-08T10:58:49;11.70;99.90
27162;DHT22;54464;50.558;9.704;2023-04-08T11:01:24;11.50;99.90
27162;DHT22;54464;50.558;9.704;2023-04-08T11:03:50;11.30;99.90
27162;DHT22;54464;50.558;9.704;2023-04-08T11:06:16;11.30;99.90
27162;DHT22;54464;50.558;9.704;2023-04-08T11:08:42;10.90;99.90
27162;DHT22;54464;50.558;9.704;2023-04-08T11:11:09;10.70;99.90
27162;DHT22;54464;50.558;9.704;2023-04-08T11:13:38;10.60;99.90
27162;DHT22;54464;50.558;9.704;2023-04-08T11:16:05;10.50;99.90
27162;DHT22;54464;50.558;9.704;2023-04-08T11:18:33;10.30;99.90
27162;DHT22;54464;50.558;9.704;2023-04-08T11:21:05;10.20;99.90
27162;DHT22;54464;50.558;9.704;2023-04-08T11:23:32;10.20;99.90
27162;DHT22;54464;50.558;9.704;2023-04-08T11:25:58;10.20;99.90
27162;DHT22;54464;50.558;9.704;2023-04-08T11:28:24;10.30;99.90
27162;DHT22;54464;50.558;9.704;2023-04-08T11:30:50;10.30;99.90
27162;DHT22;54464;50.558;9.704;2023-04-08T11:33:17;10.30;99.90
27162;DHT22;54464;50.558;9.704;2023-04-08T11:35:43;10.30;99.90
27162;DHT22;54464;50.558;9.704;2023-04-08T11:38:10;10.10;99.90
27162;DHT22;54464;50.558;9.704;2023-04-08T11:40:36;9.90;99.90
27162;DHT22;54464;50.558;9.704;2023-04-08T11:43:09;9.80;99.90
27162;DHT22;54464;50.558;9.704;2023-04-08T11:45:40;9.70;99.90
27162;DHT22;54464;50.558;9.704;2023-04-08T11:48:10;9.70;99.90
27162;DHT22;54464;50.558;9.704;2023-04-08T11:50:36;9.60;99.90
27162;DHT22;54464;50.558;9.704;2023-04-08T11:53:02;9.60;99.90
27162;DHT22;54464;50.558;9.704;2023-04-08T11:55:33;9.50;99.90
27162;DHT22;54464;50.558;9.704;2023-04-08T11:58:03;9.50;99.90
27162;DHT22;54464;50.558;9.704;2023-04-08T12:00:29;9.80;99.90
27162;DHT22;54464;50.558;9.704;2023-04-08T12:02:58;9.90;99.90
27162;DHT22;54464;50.558;9.704;2023-04-08T12:05:24;10.10;99.90
27162;DHT22;54464;50.558;9.704;2023-04-08T12:07:50;10.20;99.90
27162;DHT22;54464;50.558;9.704;2023-04-08T12:10:16;10.20;99.90
27162;DHT22;54464;50.558;9.704;2023-04-08T12:12:41;10.40;99.90
27162;DHT22;54464;50.558;9.704;2023-04-08T12:15:07;10.60;99.90
27162;DHT22;54464;50.558;9.704;2023-04-08T12:17:34;11.20;99.90
27162;DHT22;54464;50.558;9.704;2023-04-08T12:20:02;11.70;99.90
27162;DHT22;54464;50.558;9.704;2023-04-08T12:22:28;11.60;99.90
27162;DHT22;54464;50.558;9.704;2023-04-08T12:24:56;11.90;99.90
27162;DHT22;54464;50.558;9.704;2023-04-08T12:27:22;13.50;99.90
27162;DHT22;54464;50.558;9.704;2023-04-08T12:29:51;16.80;97.80
27162;DHT22;54464;50.558;9.704;2023-04-08T12:32:17;19.20;93.70
27162;DHT22;54464;50.558;9.704;2023-04-08T12:34:43;20.50;90.30
27162;DHT22;54464;50.558;9.704;2023-04-08T12:37:08;21.40;86.80
27162;DHT22;54464;50.558;9.704;2023-04-08T12:39:34;21.50;85.00
27162;DHT22;54464;50.558;9.704;2023-04-08T12:42:00;22.20;84.00
27162;DHT22;54464;50.558;9.704;2023-04-08T12:44:26;22.90;81.30
27162;DHT22;54464;50.558;9.704;2023-04-08T12:46:54;22.40;80.20
27162;DHT22;54464;50.558;9.704;2023-04-08T12:49:20;22.10;81.60
27162;DHT22;54464;50.558;9.704;2023-04-08T12:51:48;21.90;82.20
27162;DHT22;54464;50.558;9.704;2023-04-08T12:54:14;21.40;81.50
27162;DHT22;54464;50.558;9.704;2023-04-08T12:56:45;20.40;86.40
27162;DHT22;54464;50.558;9.704;2023-04-08T12:59:13;19.60;87.90
27162;DHT22;54464;50.558;9.704;2023-04-08T13:01:39;19.00;89.90
27162;DHT22;54464;50.558;9.704;2023-04-08T13:04:04;18.60;90.20
27162;DHT22;54464;50.558;9.704;2023-04-08T13:06:30;18.50;90.50
27162;DHT22;54464;50.558;9.704;2023-04-08T13:08:56;18.40;90.40
27162;DHT22;54464;50.558;9.704;2023-04-08T13:11:22;18.70;89.80
27162;DHT22;54464;50.558;9.704;2023-04-08T13:13:47;19.00;90.40
27162;DHT22;54464;50.558;9.704;2023-04-08T13:16:17;19.50;90.70
27162;DHT22;54464;50.558;9.704;2023-04-08T13:18:42;20.70;88.40
27162;DHT22;54464;50.558;9.704;2023-04-08T13:21:08;21.70;84.70
27162;DHT22;54464;50.558;9.704;2023-04-08T13:23:34;22.30;80.40
27162;DHT22;54464;50.558;9.704;2023-04-08T13:25:59;20.90;82.20
27162;DHT22;54464;50.558;9.704;2023-04-08T13:28:25;19.70;84.80
27162;DHT22;54464;50.558;9.704;2023-04-08T13:30:51;17.90;89.00
27162;DHT22;54464;50.558;9.704;2023-04-08T13:33:18;16.50;91.50
27162;DHT22;54464;50.558;9.704;2023-04-08T13:35:43;15.30;92.90
27162;DHT22;54464;50.558;9.704;2023-04-08T13:38:09;14.50;94.20
27162;DHT22;54464;50.558;9.704;2023-04-08T13:40:35;13.90;94.90
27162;DHT22;54464;50.558;9.704;2023-04-08T13:43:01;13.40;96.60
27162;DHT22;54464;50.558;9.704;2023-04-08T13:45:29;13.00;96.90
27162;DHT22;54464;50.558;9.704;2023-04-08T13:47:55;12.70;97.80
27162;DHT22;54464;50.558;9.704;2023-04-08T13:50:21;12.70;97.70
27162;DHT22;54464;50.558;9.704;2023-04-08T13:52:48;12.70;98.10
27162;DHT22;54464;50.558;9.704;2023-04-08T13:55:14;12.60;97.80
27162;DHT22;54464;50.558;9.704;2023-04-08T13:57:40;12.50;98.70
27162;DHT22;54464;50.558;9.704;2023-04-08T14:00:06;12.50;98.10
27162;DHT22;54464;50.558;9.704;2023-04-08T14:02:32;12.40;98.30
27162;DHT22;54464;50.558;9.704;2023-04-08T14:05:00;12.30;98.30
27162;DHT22;54464;50.558;9.704;2023-04-08T14:07:26;12.20;98.70
27162;DHT22;54464;50.558;9.704;2023-04-08T14:09:52;12.10;98.90
27162;DHT22;54464;50.558;9.704;2023-04-08T14:12:17;12.00;99.00
27162;DHT22;54464;50.558;9.704;2023-04-08T14:14:43;11.90;99.30
27162;DHT22;54464;50.558;9.704;2023-04-08T14:17:09;11.80;99.70
27162;DHT22;54464;50.558;9.704;2023-04-08T14:19:40;11.70;99.30
27162;DHT22;54464;50.558;9.704;2023-04-08T14:22:06;11.60;99.10
27162;DHT22;54464;50.558;9.704;2023-04-08T14:24:32;11.50;99.40
27162;DHT22;54464;50.558;9.704;2023-04-08T14:26:58;11.40;99.80
27162;DHT22;54464;50.558;9.704;2023-04-08T14:29:24;11.30;99.90
27162;DHT22;54464;50.558;9.704;2023-04-08T14:31:49;11.20;99.90
27162;DHT22;54464;50.558;9.704;2023-04-08T14:34:15;11.20;99.90
27162;DHT22;54464;50.558;9.704;2023-04-08T14:36:40;11.00;99.90
27162;DHT22;54464;50.558;9.704;2023-04-08T14:39:06;11.00;99.90
27162;DHT22;54464;50.558;9.704;2023-04-08T14:41:32;11.00;99.90
27162;DHT22;54464;50.558;9.704;2023-04-08T14:43:57;11.00;99.90
27162;DHT22;54464;50.558;9.704;2023-04-08T14:46:25;11.00;99.90
27162;DHT22;54464;50.558;9.704;2023-04-08T14:48:51;10.90;99.90
27162;DHT22;54464;50.558;9.704;2023-04-08T14:51:16;10.80;99.90
27162;DHT22;54464;50.558;9.704;2023-04-08T14:53:42;10.70;99.90
27162;DHT22;54464;50.558;9.704;2023-04-08T14:56:08;10.70;99.90
27162;DHT22;54464;50.558;9.704;2023-04-08T14:58:34;10.70;99.90
27162;DHT22;54464;50.558;9.704;2023-04-08T15:00:59;10.70;99.90
27162;DHT22;54464;50.558;9.704;2023-04-08T15:03:25;10.60;99.90
27162;DHT22;54464;50.558;9.704;2023-04-08T15:05:50;10.70;99.90
27162;DHT22;54464;50.558;9.704;2023-04-08T15:08:16;10.60;99.90
27162;DHT22;54464;50.558;9.704;2023-04-08T15:10:41;10.50;99.90
27162;DHT22;54464;50.558;9.704;2023-04-08T15:13:07;10.50;99.90
27162;DHT22;54464;50.558;9.704;2023-04-08T15:15:32;10.50;99.90
27162;DHT22;54464;50.558;9.704;2023-04-08T15:17:58;10.50;99.90
27162;DHT22;54464;50.558;9.704;2023-04-08T15:20:24;10.40;99.90
27162;DHT22;54464;50.558;9.704;2023-04-08T15:22:49;10.30;99.90
27162;DHT22;54464;50.558;9.704;2023-04-08T15:25:15;10.20;99.90
27162;DHT22;54464;50.558;9.704;2023-04-08T15:27:41;10.20;99.90
27162;DHT22;54464;50.558;9.704;2023-04-08T15:30:07;10.20;99.90
27162;DHT22;54464;50.558;9.704;2023-04-08T15:32:33;10.20;99.90
27162;DHT22;54464;50.558;9.704;2023-04-08T15:34:59;10.20;99.90
27162;DHT22;54464;50.558;9.704;2023-04-08T15:37:25;10.30;99.90
27162;DHT22;54464;50.558;9.704;2023-04-08T15:39:51;10.30;99.90
27162;DHT22;54464;50.558;9.704;2023-04-08T15:42:20;10.40;99.90
27162;DHT22;54464;50.558;9.704;2023-04-08T15:44:48;10.40;99.90
27162;DHT22;54464;50.558;9.704;2023-04-08T15:47:14;10.50;99.90
27162;DHT22;54464;50.558;9.704;2023-04-08T15:49:40;10.60;99.90
27162;DHT22;54464;50.558;9.704;2023-04-08T15:52:06;10.60;99.90
27162;DHT22;54464;50.558;9.704;2023-04-08T15:54:34;10.60;99.90
27162;DHT22;54464;50.558;9.704;2023-04-08T15:57:00;10.70;99.90
27162;DHT22;54464;50.558;9.704;2023-04-08T15:59:29;11.00;99.90